This is the latest recevied weather packets stored in our database for station/object CE4JVU-10. If no packets are shown the sender has not sent any weather packets the latest 10 day(s).
| Time | Temp. | Humidity | Pressure | Rain* | Wind** | Luminosity | Snow |
|---|---|---|---|---|---|---|---|
| 1787693799 | 18.33° C | 63% | 979.5 hPa | - | - | - | - |
| 1787692898 | 18.33° C | 63% | 978.9 hPa | - | - | - | - |
| 1787691998 | 18.33° C | 63% | 978.9 hPa | - | - | - | - |
| 1787691098 | 18.33° C | 62% | 978.4 hPa | - | - | - | - |
| 1787690198 | 18.33° C | 62% | 979.3 hPa | - | - | - | - |
| 1787689297 | 18.33° C | 62% | 979.2 hPa | - | - | - | - |
| 1787688398 | 18.89° C | 61% | 978.7 hPa | - | - | - | - |
| 1787687498 | 18.33° C | 62% | 978.7 hPa | - | - | - | - |
| 1787686598 | 18.33° C | 62% | 977.8 hPa | - | - | - | - |
| 1787685698 | 18.33° C | 61% | 977.9 hPa | - | - | - | - |
| 1787684798 | 18.33° C | 61% | 978.5 hPa | - | - | - | - |
| 1787683898 | 16.67° C | 64% | 977.9 hPa | - | - | - | - |
| 1787682998 | 17.78° C | 64% | 978 hPa | - | - | - | - |
| 1787682098 | 17.22° C | 65% | 978.4 hPa | - | - | - | - |
| 1787681198 | 17.22° C | 64% | 979 hPa | - | - | - | - |
| 1787680298 | 17.22° C | 62% | 979.7 hPa | - | - | - | - |
| 1787679397 | 17.22° C | 62% | 980.2 hPa | - | - | - | - |
| 1787678497 | 17.78° C | 59% | 979.3 hPa | - | - | - | - |
| 1787677597 | 17.22° C | 59% | 979.8 hPa | - | - | - | - |
| 1787676697 | 16.67° C | 62% | 979.1 hPa | - | - | - | - |
| 1787675797 | 16.11° C | 63% | 980.2 hPa | - | - | - | - |
| 1787674897 | 16.11° C | 63% | 980.9 hPa | - | - | - | - |
| 1787673997 | 16.11° C | 62% | 981.6 hPa | - | - | - | - |
| 1787673097 | 16.11° C | 62% | 980.6 hPa | - | - | - | - |
| 1787672197 | 16.11° C | 61% | 980.4 hPa | - | - | - | - |
* Rain since midnight (hover to see other rain measurements)
** Current wind speed in m/s (hover to see current wind gust speed)